createdAt,value
2019-04-25T00:00:43.255Z,10.39
2019-04-25T00:01:43.914Z,10.33
2019-04-25T00:02:43.991Z,10.39
2019-04-25T00:03:43.718Z,10.44
2019-04-25T00:04:43.490Z,10.42
2019-04-25T00:05:43.589Z,10.44
2019-04-25T00:06:43.998Z,10.47
2019-04-25T00:07:43.862Z,10.42
2019-04-25T00:08:44.131Z,10.47
2019-04-25T00:09:44.033Z,10.55
2019-04-25T00:10:43.879Z,10.46
2019-04-25T00:11:46.552Z,10.53
2019-04-25T00:12:43.715Z,10.40
2019-04-25T00:13:44.001Z,10.39
2019-04-25T00:14:43.764Z,10.33
2019-04-25T00:15:44.927Z,10.37
2019-04-25T00:16:44.049Z,10.40
2019-04-25T00:17:43.397Z,10.37
2019-04-25T00:18:43.130Z,10.42
2019-04-25T00:19:43.324Z,10.40
2019-04-25T00:20:43.596Z,10.42
2019-04-25T00:21:43.363Z,10.40
2019-04-25T00:22:43.725Z,10.43
2019-04-25T00:23:43.705Z,10.43
2019-04-25T00:24:43.975Z,10.56
2019-04-25T00:25:45.850Z,10.44
2019-04-25T00:26:44.098Z,10.46
2019-04-25T00:27:43.578Z,10.43
2019-04-25T00:28:44.351Z,10.42
2019-04-25T00:29:43.933Z,10.51
2019-04-25T00:30:44.425Z,10.58
2019-04-25T00:31:43.693Z,10.42
2019-04-25T00:32:44.103Z,10.46
2019-04-25T00:33:44.173Z,10.52
2019-04-25T00:34:44.253Z,10.51
2019-04-25T00:35:44.562Z,10.43
2019-04-25T00:36:43.704Z,10.51
2019-04-25T00:37:44.254Z,10.42
2019-04-25T00:38:46.420Z,10.37
2019-04-25T00:39:44.776Z,10.36
2019-04-25T00:40:43.906Z,10.28
2019-04-25T00:41:45.157Z,10.25
2019-04-25T00:42:43.689Z,10.28
2019-04-25T00:43:43.884Z,10.26
2019-04-25T00:44:44.746Z,10.36
2019-04-25T00:45:44.450Z,10.33
2019-04-25T00:46:46.383Z,10.28
2019-04-25T00:47:44.651Z,10.25
2019-04-25T00:48:43.446Z,10.32
2019-04-25T00:49:44.025Z,10.34
2019-04-25T00:50:43.645Z,10.30
2019-04-25T00:51:43.759Z,10.24
2019-04-25T00:52:43.890Z,10.22
2019-04-25T00:53:43.450Z,10.17
2019-04-25T00:54:43.158Z,10.21
2019-04-25T00:55:43.164Z,10.15
2019-04-25T00:56:45.651Z,10.09
2019-04-25T00:57:43.531Z,10.00
2019-04-25T00:58:43.961Z,9.97
2019-04-25T00:59:43.917Z,9.96
2019-04-25T01:00:43.445Z,9.96
2019-04-25T01:01:44.249Z,10.00
2019-04-25T01:02:44.070Z,10.00
2019-04-25T01:03:44.154Z,9.93
2019-04-25T01:04:43.733Z,9.94
2019-04-25T01:05:44.410Z,9.93
2019-04-25T01:06:43.937Z,9.94
2019-04-25T01:07:44.247Z,9.93
2019-04-25T01:08:43.355Z,9.88
2019-04-25T01:09:42.517Z,9.93
2019-04-25T01:10:42.509Z,9.93
2019-04-25T01:11:42.526Z,9.86
2019-04-25T01:12:42.494Z,9.86
2019-04-25T01:13:42.480Z,9.70
2019-04-25T01:14:42.459Z,9.63
2019-04-25T01:15:42.579Z,9.63
2019-04-25T01:16:42.431Z,9.61
2019-04-25T01:17:42.445Z,9.60
2019-04-25T01:18:43.626Z,9.58
2019-04-25T01:19:44.047Z,9.60
2019-04-25T01:20:43.451Z,9.63
2019-04-25T01:21:43.910Z,9.61
2019-04-25T01:22:43.993Z,9.56
2019-04-25T01:23:43.481Z,9.60
2019-04-25T01:24:43.869Z,9.60
2019-04-25T01:25:44.328Z,9.66
2019-04-25T01:26:43.775Z,9.66
2019-04-25T01:27:43.333Z,9.64
2019-04-25T01:28:43.853Z,9.70
2019-04-25T01:29:42.297Z,9.79
2019-04-25T01:30:43.880Z,9.78
2019-04-25T01:31:43.448Z,9.81
2019-04-25T01:32:44.632Z,9.83
2019-04-25T01:33:43.341Z,9.85
2019-04-25T01:34:44.167Z,9.81
2019-04-25T01:35:43.064Z,9.82
2019-04-25T01:36:42.221Z,9.79
2019-04-25T01:37:43.722Z,9.79
2019-04-25T01:38:43.315Z,9.75
2019-04-25T01:39:42.191Z,9.81
2019-04-25T01:40:43.908Z,9.76
2019-04-25T01:41:42.180Z,9.78
2019-04-25T01:42:43.739Z,9.75
2019-04-25T01:43:43.659Z,9.81
2019-04-25T01:44:43.683Z,9.86
2019-04-25T01:45:43.763Z,9.79
2019-04-25T01:46:42.182Z,9.75
2019-04-25T01:47:43.402Z,9.70
2019-04-25T01:48:43.363Z,9.60
2019-04-25T01:49:43.808Z,9.66
2019-04-25T01:50:43.773Z,9.61
2019-04-25T01:51:43.597Z,9.63
2019-04-25T01:52:43.430Z,9.53
2019-04-25T01:53:42.073Z,9.53
2019-04-25T01:54:43.662Z,9.68
2019-04-25T01:55:53.764Z,9.64
2019-04-25T01:56:44.311Z,9.71
2019-04-25T01:57:43.729Z,9.60
2019-04-25T01:58:43.638Z,9.60
2019-04-25T01:59:43.721Z,9.68
2019-04-25T02:00:43.113Z,9.64
2019-04-25T02:01:41.958Z,9.58
2019-04-25T02:02:43.437Z,9.58
2019-04-25T02:03:41.939Z,9.58
2019-04-25T02:04:41.964Z,9.63
2019-04-25T02:05:41.918Z,9.57
2019-04-25T02:06:43.055Z,9.57
2019-04-25T02:07:41.909Z,9.58
2019-04-25T02:08:41.889Z,9.53
2019-04-25T02:09:43.460Z,9.53
2019-04-25T02:10:41.866Z,9.50
2019-04-25T02:11:41.856Z,9.50
2019-04-25T02:12:43.404Z,9.57
2019-04-25T02:13:43.681Z,9.60
2019-04-25T02:14:43.475Z,9.53
2019-04-25T02:15:43.327Z,9.57
2019-04-25T02:16:41.824Z,9.63
2019-04-25T02:17:41.815Z,9.60
2019-04-25T02:18:43.462Z,9.64
2019-04-25T02:19:41.774Z,9.50
2019-04-25T02:20:43.534Z,9.50
2019-04-25T02:21:43.309Z,9.57
2019-04-25T02:22:41.742Z,9.58
2019-04-25T02:23:41.730Z,9.60
2019-04-25T02:24:41.737Z,9.60
2019-04-25T02:25:41.723Z,9.56
2019-04-25T02:26:41.714Z,9.60
2019-04-25T02:27:41.686Z,9.58
2019-04-25T02:28:41.675Z,9.57
2019-04-25T02:29:43.226Z,9.48
2019-04-25T02:30:41.665Z,9.53
2019-04-25T02:31:41.673Z,9.58
2019-04-25T02:32:43.746Z,9.53
2019-04-25T02:33:44.100Z,9.46
2019-04-25T02:34:41.617Z,9.50
2019-04-25T02:35:44.009Z,9.49
2019-04-25T02:36:41.609Z,9.64
2019-04-25T02:37:41.582Z,9.45
2019-04-25T02:38:44.007Z,9.60
2019-04-25T02:39:41.556Z,9.43
2019-04-25T02:40:41.548Z,9.42
2019-04-25T02:41:41.562Z,9.49
2019-04-25T02:42:43.729Z,9.46
2019-04-25T02:43:41.527Z,9.38
2019-04-25T02:44:41.507Z,9.38
2019-04-25T02:45:41.497Z,9.40
2019-04-25T02:46:41.488Z,9.39
2019-04-25T02:47:41.499Z,9.35
2019-04-25T02:48:41.467Z,9.40
2019-04-25T02:49:41.468Z,9.32
2019-04-25T02:50:41.470Z,9.39
2019-04-25T02:51:41.442Z,9.40
2019-04-25T02:52:41.452Z,9.42
2019-04-25T02:53:41.415Z,9.40
2019-04-25T02:54:41.400Z,9.42
2019-04-25T02:55:41.396Z,9.43
2019-04-25T02:56:41.387Z,9.39
2019-04-25T02:57:41.385Z,9.40
2019-04-25T02:58:41.372Z,9.42
2019-04-25T02:59:41.349Z,9.42
2019-04-25T03:00:54.979Z,9.40
2019-04-25T03:01:44.458Z,9.35
2019-04-25T03:02:41.336Z,9.38
2019-04-25T03:03:41.310Z,9.38
2019-04-25T03:04:41.293Z,9.30
2019-04-25T03:05:41.312Z,9.40
2019-04-25T03:06:41.286Z,9.38
2019-04-25T03:07:41.282Z,9.24
2019-04-25T03:08:41.270Z,9.27
2019-04-25T03:09:41.239Z,9.28
2019-04-25T03:10:41.246Z,9.27
2019-04-25T03:11:41.222Z,9.31
2019-04-25T03:12:41.208Z,9.25
2019-04-25T03:13:41.240Z,9.21
2019-04-25T03:14:41.188Z,9.25
2019-04-25T03:15:41.184Z,9.27
2019-04-25T03:16:41.174Z,9.20
2019-04-25T03:17:41.159Z,9.21
2019-04-25T03:18:41.145Z,9.15
2019-04-25T03:19:41.160Z,9.13
2019-04-25T03:20:41.138Z,9.10
2019-04-25T03:21:41.118Z,9.15
2019-04-25T03:22:41.105Z,9.18
2019-04-25T03:23:42.782Z,9.06
2019-04-25T03:24:41.151Z,9.04
2019-04-25T03:25:41.076Z,9.09
2019-04-25T03:26:41.075Z,9.15
2019-04-25T03:27:41.052Z,9.10
2019-04-25T03:28:41.038Z,9.06
2019-04-25T03:29:41.033Z,9.06
2019-04-25T03:30:41.050Z,9.12
2019-04-25T03:31:41.020Z,9.21
2019-04-25T03:32:41.000Z,9.18
2019-04-25T03:33:40.987Z,9.15
2019-04-25T03:34:41.001Z,9.21
2019-04-25T03:35:40.984Z,9.23
2019-04-25T03:36:40.955Z,9.16
2019-04-25T03:37:40.953Z,9.15
2019-04-25T03:38:40.935Z,9.18
2019-04-25T03:39:40.922Z,9.20
2019-04-25T03:40:40.985Z,9.20
2019-04-25T03:41:40.901Z,9.16
2019-04-25T03:42:40.921Z,9.18
2019-04-25T03:43:40.880Z,9.23
2019-04-25T03:44:40.869Z,9.16
2019-04-25T03:45:40.870Z,9.21
2019-04-25T03:46:40.870Z,9.16
2019-04-25T03:47:40.840Z,9.18
2019-04-25T03:48:40.843Z,9.10
2019-04-25T03:49:40.822Z,9.13
2019-04-25T03:50:40.806Z,9.09
2019-04-25T03:51:40.815Z,9.10
2019-04-25T03:52:40.829Z,9.09
2019-04-25T03:53:40.778Z,9.02
2019-04-25T03:54:40.763Z,9.02
2019-04-25T03:55:40.750Z,9.09
2019-04-25T03:56:49.834Z,9.09
2019-04-25T03:57:41.730Z,8.97
2019-04-25T03:58:40.733Z,8.91
2019-04-25T03:59:40.709Z,9.04
2019-04-25T04:00:40.700Z,9.04
2019-04-25T04:01:40.707Z,9.01
2019-04-25T04:02:40.691Z,8.93
2019-04-25T04:03:40.666Z,9.06
2019-04-25T04:04:40.655Z,8.94
2019-04-25T04:05:40.647Z,9.05
2019-04-25T04:06:40.675Z,9.01
2019-04-25T04:07:40.630Z,9.09
2019-04-25T04:08:40.612Z,9.12
2019-04-25T04:09:40.603Z,9.10
2019-04-25T04:10:40.592Z,9.01
2019-04-25T04:11:40.588Z,9.10
2019-04-25T04:12:40.591Z,9.09
2019-04-25T04:13:40.560Z,9.10
2019-04-25T04:14:40.549Z,9.10
2019-04-25T04:15:40.560Z,9.10
2019-04-25T04:16:40.535Z,9.13
2019-04-25T04:17:40.540Z,9.05
2019-04-25T04:18:40.506Z,9.02
2019-04-25T04:19:40.497Z,9.05
2019-04-25T04:20:40.491Z,9.09
2019-04-25T04:21:40.473Z,9.06
2019-04-25T04:22:40.464Z,9.16
2019-04-25T04:23:40.473Z,9.12
2019-04-25T04:24:40.443Z,9.15
2019-04-25T04:25:40.440Z,9.09
2019-04-25T04:26:40.423Z,9.09
2019-04-25T04:27:40.411Z,9.15
2019-04-25T04:28:40.419Z,9.04
2019-04-25T04:29:40.405Z,9.05
2019-04-25T04:30:40.380Z,9.12
2019-04-25T04:31:40.375Z,9.04
2019-04-25T04:32:40.357Z,8.97
2019-04-25T04:33:40.372Z,8.94
2019-04-25T04:34:40.345Z,8.94
2019-04-25T04:35:40.326Z,8.93
2019-04-25T04:36:40.320Z,9.04
2019-04-25T04:37:40.304Z,8.99
2019-04-25T04:38:40.314Z,9.01
2019-04-25T04:39:40.303Z,9.02
2019-04-25T04:40:40.272Z,9.05
2019-04-25T04:41:40.263Z,9.09
2019-04-25T04:42:40.252Z,9.10
2019-04-25T04:43:40.252Z,8.96
2019-04-25T04:44:40.250Z,9.04
2019-04-25T04:45:40.219Z,9.05
2019-04-25T04:46:40.210Z,9.01
2019-04-25T04:47:40.199Z,9.10
2019-04-25T04:48:40.195Z,9.05
2019-04-25T04:49:40.198Z,9.02
2019-04-25T04:50:40.167Z,9.13
2019-04-25T04:51:40.155Z,9.20
2019-04-25T04:52:40.146Z,9.10
2019-04-25T04:53:40.135Z,9.24
2019-04-25T04:54:40.149Z,9.21
2019-04-25T04:55:40.114Z,9.30
2019-04-25T04:56:40.103Z,9.20
2019-04-25T04:57:40.103Z,9.25
2019-04-25T04:58:40.098Z,9.28
2019-04-25T04:59:40.093Z,9.24
2019-04-25T05:00:40.093Z,9.28
2019-04-25T05:01:40.074Z,9.24
2019-04-25T05:02:40.039Z,9.35
2019-04-25T05:03:40.031Z,9.31
2019-04-25T05:04:40.019Z,9.35
2019-04-25T05:05:40.030Z,9.35
2019-04-25T05:06:40.001Z,9.38
2019-04-25T05:07:39.987Z,9.43
2019-04-25T05:08:39.978Z,9.38
2019-04-25T05:09:39.973Z,9.49
2019-04-25T05:10:40.201Z,9.52
2019-04-25T05:11:40.035Z,9.56
2019-04-25T05:12:39.948Z,9.56
2019-04-25T05:13:39.934Z,9.53
2019-04-25T05:14:39.938Z,9.58
2019-04-25T05:15:39.906Z,9.58
2019-04-25T05:16:39.912Z,9.56
2019-04-25T05:17:39.920Z,9.53
2019-04-25T05:18:40.117Z,9.58
2019-04-25T05:19:39.864Z,9.60
2019-04-25T05:20:39.852Z,9.60
2019-04-25T05:21:39.901Z,9.61
2019-04-25T05:22:39.831Z,9.60
2019-04-25T05:23:39.818Z,9.63
2019-04-25T05:24:39.814Z,9.70
2019-04-25T05:25:39.797Z,9.76
2019-04-25T05:26:39.784Z,9.73
2019-04-25T05:27:56.910Z,9.75
2019-04-25T05:28:40.764Z,9.82
2019-04-25T05:29:39.763Z,9.85
2019-04-25T05:30:39.744Z,9.83
2019-04-25T05:31:39.739Z,9.83
2019-04-25T05:32:39.803Z,9.93
2019-04-25T05:33:39.713Z,9.88
2019-04-25T05:34:39.746Z,9.88
2019-04-25T05:35:39.692Z,9.94
2019-04-25T05:36:39.703Z,9.96
2019-04-25T05:37:39.676Z,9.91
2019-04-25T05:38:39.681Z,9.91
2019-04-25T05:39:39.656Z,9.97
2019-04-25T05:40:39.641Z,9.99
2019-04-25T05:41:39.629Z,9.99
2019-04-25T05:42:39.627Z,9.93
2019-04-25T05:43:39.629Z,10.06
2019-04-25T05:44:39.613Z,10.14
2019-04-25T05:45:39.587Z,10.10
2019-04-25T05:46:39.590Z,10.17
2019-04-25T05:47:39.566Z,10.25
2019-04-25T05:48:39.605Z,10.24
2019-04-25T05:49:39.544Z,10.30
2019-04-25T05:50:39.572Z,10.32
2019-04-25T05:51:39.525Z,10.26
2019-04-25T05:52:39.511Z,10.40
2019-04-25T05:53:39.502Z,10.43
2019-04-25T05:54:39.520Z,10.33
2019-04-25T05:55:39.479Z,10.40
2019-04-25T05:56:39.476Z,10.34
2019-04-25T05:57:47.410Z,10.39
2019-04-25T05:58:40.447Z,10.42
2019-04-25T05:59:39.435Z,10.46
2019-04-25T06:00:39.447Z,10.42
2019-04-25T06:01:39.435Z,10.43
2019-04-25T06:02:39.412Z,10.58
2019-04-25T06:03:39.400Z,10.59
2019-04-25T06:04:39.389Z,10.66
2019-04-25T06:05:39.395Z,10.68
2019-04-25T06:06:39.365Z,10.76
2019-04-25T06:07:39.354Z,10.84
2019-04-25T06:08:39.344Z,10.88
2019-04-25T06:09:39.348Z,10.92
2019-04-25T06:10:39.354Z,10.99
2019-04-25T06:11:39.313Z,10.96
2019-04-25T06:12:39.301Z,11.02
2019-04-25T06:13:39.314Z,11.13
2019-04-25T06:14:39.295Z,11.10
2019-04-25T06:15:39.290Z,11.06
2019-04-25T06:16:39.259Z,11.14
2019-04-25T06:17:39.250Z,11.10
2019-04-25T06:18:39.241Z,11.07
2019-04-25T06:19:39.234Z,11.20
2019-04-25T06:20:39.235Z,11.06
2019-04-25T06:21:39.206Z,11.16
2019-04-25T06:22:39.213Z,11.13
2019-04-25T06:23:39.185Z,11.10
2019-04-25T06:24:39.175Z,11.10
2019-04-25T06:25:39.856Z,11.16
2019-04-25T06:26:40.024Z,11.25
2019-04-25T06:27:39.143Z,11.13
2019-04-25T06:28:49.165Z,11.16
2019-04-25T06:29:40.128Z,11.17
2019-04-25T06:30:39.113Z,11.19
2019-04-25T06:31:39.121Z,11.16
2019-04-25T06:32:39.090Z,11.28
2019-04-25T06:33:39.111Z,11.21
2019-04-25T06:34:39.068Z,11.17
2019-04-25T06:35:39.057Z,11.25
2019-04-25T06:36:39.066Z,11.25
2019-04-25T06:37:39.035Z,11.19
2019-04-25T06:38:39.027Z,11.14
2019-04-25T06:39:39.023Z,11.20
2019-04-25T06:40:39.005Z,11.17
2019-04-25T06:41:39.042Z,11.29
2019-04-25T06:42:39.012Z,11.38
2019-04-25T06:43:38.974Z,11.36
2019-04-25T06:44:38.961Z,11.28
2019-04-25T06:45:38.956Z,11.38
2019-04-25T06:46:38.951Z,11.41
2019-04-25T06:47:38.950Z,11.27
2019-04-25T06:48:38.924Z,11.38
2019-04-25T06:49:38.925Z,11.46
2019-04-25T06:50:38.898Z,11.59
2019-04-25T06:51:38.891Z,11.49
2019-04-25T06:52:38.899Z,11.53
2019-04-25T06:53:38.869Z,11.52
2019-04-25T06:54:38.858Z,11.67
2019-04-25T06:55:38.887Z,11.70
2019-04-25T06:56:38.836Z,11.67
2019-04-25T06:57:38.849Z,11.77
2019-04-25T06:58:38.816Z,11.83
2019-04-25T06:59:41.440Z,11.83
2019-04-25T07:00:42.571Z,11.89
2019-04-25T07:01:39.785Z,12.02
2019-04-25T07:02:38.807Z,12.06
2019-04-25T07:03:38.771Z,12.05
2019-04-25T07:04:38.751Z,12.05
2019-04-25T07:05:40.509Z,12.13
2019-04-25T07:06:38.734Z,12.19
2019-04-25T07:07:38.741Z,12.16
2019-04-25T07:08:38.729Z,12.19
2019-04-25T07:09:38.797Z,12.15
2019-04-25T07:10:38.689Z,12.16
2019-04-25T07:11:38.679Z,12.23
2019-04-25T07:12:38.695Z,12.24
2019-04-25T07:13:38.971Z,12.21
2019-04-25T07:14:38.646Z,12.13
2019-04-25T07:15:38.634Z,12.29
2019-04-25T07:16:38.624Z,12.16
2019-04-25T07:17:38.622Z,12.19
2019-04-25T07:18:38.626Z,12.16
2019-04-25T07:19:38.673Z,12.24
2019-04-25T07:20:38.644Z,12.23
2019-04-25T07:21:38.570Z,12.26
2019-04-25T07:22:38.562Z,12.20
2019-04-25T07:23:38.571Z,12.20
2019-04-25T07:24:38.540Z,12.26
2019-04-25T07:25:38.529Z,12.31
2019-04-25T07:26:39.787Z,12.29
2019-04-25T07:27:38.572Z,12.34
2019-04-25T07:28:38.537Z,12.31
2019-04-25T07:29:38.490Z,12.31
2019-04-25T07:30:50.115Z,12.39
2019-04-25T07:31:39.472Z,12.38
2019-04-25T07:32:38.892Z,12.38
2019-04-25T07:33:38.444Z,12.44
2019-04-25T07:34:38.465Z,12.44
2019-04-25T07:35:38.424Z,12.39
2019-04-25T07:36:38.415Z,12.46
2019-04-25T07:37:41.518Z,12.38
2019-04-25T07:38:38.395Z,12.46
2019-04-25T07:39:38.411Z,12.45
2019-04-25T07:40:38.377Z,12.46
2019-04-25T07:41:38.578Z,12.45
2019-04-25T07:42:38.350Z,12.45
2019-04-25T07:43:38.338Z,12.44
2019-04-25T07:44:49.399Z,12.48
2019-04-25T07:45:39.347Z,12.51
2019-04-25T07:46:39.950Z,12.57
2019-04-25T07:47:38.337Z,12.66
2019-04-25T07:48:38.289Z,12.67
2019-04-25T07:49:38.276Z,12.78
2019-04-25T07:50:38.283Z,12.84
2019-04-25T07:51:38.254Z,12.85
2019-04-25T07:52:38.249Z,13.04
2019-04-25T07:53:38.235Z,13.04
2019-04-25T07:54:38.503Z,13.21
2019-04-25T07:55:38.826Z,13.17
2019-04-25T07:56:38.203Z,13.15
2019-04-25T07:57:38.650Z,13.18
2019-04-25T07:58:49.316Z,13.18
2019-04-25T07:59:39.169Z,13.29
2019-04-25T08:00:38.182Z,13.37
2019-04-25T08:01:39.069Z,13.43
2019-04-25T08:02:38.137Z,13.52
2019-04-25T08:03:38.128Z,13.51
2019-04-25T08:04:38.372Z,13.58
2019-04-25T08:05:38.104Z,13.62
2019-04-25T08:06:38.114Z,13.67
2019-04-25T08:07:38.086Z,13.73
2019-04-25T08:08:38.178Z,13.71
2019-04-25T08:09:38.086Z,13.67
2019-04-25T08:10:38.167Z,13.62
2019-04-25T08:11:38.326Z,13.65
2019-04-25T08:12:38.045Z,13.58
2019-04-25T08:13:38.035Z,13.58
2019-04-25T08:14:38.011Z,13.58
2019-04-25T08:15:38.364Z,13.54
2019-04-25T08:16:38.008Z,13.54
2019-04-25T08:17:38.845Z,13.52
2019-04-25T08:18:38.931Z,13.56
2019-04-25T08:19:37.960Z,13.54
2019-04-25T08:20:37.946Z,13.52
2019-04-25T08:21:38.403Z,13.55
2019-04-25T08:22:50.154Z,13.55
2019-04-25T08:23:38.966Z,13.61
2019-04-25T08:24:37.904Z,13.58
2019-04-25T08:25:40.285Z,13.51
2019-04-25T08:26:37.903Z,13.56
2019-04-25T08:27:38.847Z,13.51
2019-04-25T08:28:50.146Z,13.51
2019-04-25T08:29:39.738Z,13.55
2019-04-25T08:30:38.228Z,13.62
2019-04-25T08:31:37.860Z,13.67
2019-04-25T08:32:37.818Z,13.61
2019-04-25T08:33:37.808Z,13.52
2019-04-25T08:34:38.603Z,13.52
2019-04-25T08:35:38.193Z,13.61
2019-04-25T08:36:38.659Z,13.62
2019-04-25T08:37:37.950Z,13.61
2019-04-25T08:38:38.175Z,13.67
2019-04-25T08:39:38.748Z,13.65
2019-04-25T08:40:38.986Z,13.65
2019-04-25T08:41:38.493Z,13.69
2019-04-25T08:42:37.976Z,13.73
2019-04-25T08:43:40.088Z,13.73
2019-04-25T08:44:37.699Z,13.92
2019-04-25T08:45:38.481Z,14.02
2019-04-25T08:46:38.489Z,14.04
2019-04-25T08:47:37.679Z,14.14
2019-04-25T08:48:37.654Z,14.17
2019-04-25T08:49:38.150Z,14.17
2019-04-25T08:50:40.177Z,14.20
2019-04-25T08:51:37.857Z,14.21
2019-04-25T08:52:37.789Z,14.29
2019-04-25T08:53:37.615Z,14.31
2019-04-25T08:54:41.087Z,14.32
2019-04-25T08:55:38.571Z,14.39
2019-04-25T08:56:37.833Z,14.32
2019-04-25T08:57:37.951Z,14.43
2019-04-25T08:58:37.546Z,14.47
2019-04-25T08:59:43.330Z,14.62
2019-04-25T09:00:38.518Z,14.60
2019-04-25T09:01:39.555Z,14.68
2019-04-25T09:02:38.723Z,14.74
2019-04-25T09:03:38.005Z,14.80
2019-04-25T09:04:38.027Z,14.99
2019-04-25T09:05:38.723Z,15.08
2019-04-25T09:06:38.548Z,14.99
2019-04-25T09:07:38.227Z,15.02
2019-04-25T09:08:38.536Z,15.20
2019-04-25T09:09:37.858Z,15.28
2019-04-25T09:10:38.938Z,15.45
2019-04-25T09:11:38.745Z,15.63
2019-04-25T09:12:37.794Z,15.63
2019-04-25T09:13:38.446Z,15.67
2019-04-25T09:14:37.819Z,15.78
2019-04-25T09:15:38.084Z,15.78
2019-04-25T09:16:37.891Z,15.84
2019-04-25T09:17:38.038Z,15.97
2019-04-25T09:18:38.141Z,16.09
2019-04-25T09:19:38.375Z,16.11
2019-04-25T09:20:39.619Z,16.11
2019-04-25T09:21:37.843Z,16.07
2019-04-25T09:22:38.417Z,16.01
2019-04-25T09:23:37.925Z,15.94
2019-04-25T09:24:38.097Z,15.85
2019-04-25T09:25:37.255Z,15.81
2019-04-25T09:26:38.307Z,15.74
2019-04-25T09:27:39.717Z,15.76
2019-04-25T09:28:39.144Z,15.72
2019-04-25T09:29:37.236Z,15.67
2019-04-25T09:30:38.293Z,15.64
2019-04-25T09:31:38.792Z,15.70
2019-04-25T09:32:37.283Z,15.66
2019-04-25T09:33:37.205Z,15.70
2019-04-25T09:34:38.072Z,15.75
2019-04-25T09:35:37.657Z,15.67
2019-04-25T09:36:37.696Z,15.67
2019-04-25T09:37:37.122Z,15.64
2019-04-25T09:38:37.113Z,15.64
2019-04-25T09:39:37.140Z,15.68
2019-04-25T09:40:37.444Z,15.60
2019-04-25T09:41:37.867Z,15.64
2019-04-25T09:42:37.076Z,15.61
2019-04-25T09:43:37.306Z,15.66
2019-04-25T09:44:38.198Z,15.66
2019-04-25T09:45:37.620Z,15.67
2019-04-25T09:46:37.342Z,15.76
2019-04-25T09:47:37.183Z,15.82
2019-04-25T09:48:37.524Z,15.79
2019-04-25T09:49:37.980Z,15.92
2019-04-25T09:50:37.500Z,15.88
2019-04-25T09:51:37.621Z,15.99
2019-04-25T09:52:37.760Z,16.12
2019-04-25T09:53:42.353Z,16.25
2019-04-25T09:54:38.113Z,16.18
2019-04-25T09:55:37.555Z,16.27
2019-04-25T09:56:36.918Z,16.18
2019-04-25T09:57:36.906Z,16.04
2019-04-25T09:58:37.921Z,16.18
2019-04-25T09:59:37.543Z,16.26
2019-04-25T10:00:38.135Z,16.26
2019-04-25T10:01:37.886Z,16.30
2019-04-25T10:02:36.971Z,16.30
2019-04-25T10:03:36.844Z,16.31
2019-04-25T10:04:36.916Z,16.30
2019-04-25T10:05:37.132Z,16.27
2019-04-25T10:06:37.309Z,16.27
2019-04-25T10:07:37.283Z,16.35
2019-04-25T10:08:37.029Z,16.34
2019-04-25T10:09:36.779Z,16.40
2019-04-25T10:10:36.820Z,16.35
2019-04-25T10:11:38.216Z,16.37
2019-04-25T10:12:37.346Z,16.37
2019-04-25T10:13:38.502Z,16.45
2019-04-25T10:14:37.626Z,16.40
2019-04-25T10:15:37.537Z,16.40
2019-04-25T10:16:39.001Z,16.40
2019-04-25T10:17:37.570Z,16.55
2019-04-25T10:18:37.036Z,16.55
2019-04-25T10:19:36.940Z,16.60
2019-04-25T10:20:37.563Z,16.53
2019-04-25T10:21:37.960Z,16.58
2019-04-25T10:22:36.641Z,16.60
2019-04-25T10:23:38.135Z,16.62
2019-04-25T10:24:37.408Z,16.59
2019-04-25T10:25:38.000Z,16.68
2019-04-25T10:26:37.605Z,16.67
2019-04-25T10:27:36.596Z,16.71
2019-04-25T10:28:36.579Z,16.65
2019-04-25T10:29:44.429Z,16.70
2019-04-25T10:30:37.556Z,16.60
2019-04-25T10:31:36.568Z,16.62
2019-04-25T10:32:36.536Z,16.62
2019-04-25T10:33:36.529Z,16.63
2019-04-25T10:34:36.513Z,16.65
2019-04-25T10:35:46.661Z,16.62
2019-04-25T10:36:39.860Z,16.67
2019-04-25T10:37:36.482Z,16.67
2019-04-25T10:38:36.552Z,16.70
2019-04-25T10:39:36.462Z,16.71
2019-04-25T10:40:36.449Z,16.71
2019-04-25T10:41:36.440Z,16.74
2019-04-25T10:42:36.448Z,16.78
2019-04-25T10:43:36.419Z,16.65
2019-04-25T10:44:36.413Z,16.73
2019-04-25T10:45:36.409Z,16.63
2019-04-25T10:46:36.387Z,16.70
2019-04-25T10:47:36.393Z,16.74
2019-04-25T10:48:36.364Z,16.73
2019-04-25T10:49:36.354Z,16.80
2019-04-25T10:50:36.345Z,16.78
2019-04-25T10:51:36.333Z,16.77
2019-04-25T10:52:36.345Z,16.85
2019-04-25T10:53:36.314Z,16.96
2019-04-25T10:54:36.311Z,16.93
2019-04-25T10:55:36.291Z,16.95
2019-04-25T10:56:36.280Z,17.03
2019-04-25T10:57:36.316Z,17.08
2019-04-25T10:58:36.262Z,17.07
2019-04-25T10:59:36.252Z,17.23
2019-04-25T11:00:36.237Z,17.29
2019-04-25T11:01:36.229Z,17.38
2019-04-25T11:02:36.234Z,17.48
2019-04-25T11:03:36.254Z,17.46
2019-04-25T11:04:36.204Z,17.54
2019-04-25T11:05:36.183Z,17.51
2019-04-25T11:06:36.175Z,17.53
2019-04-25T11:07:36.187Z,17.57
2019-04-25T11:08:36.152Z,17.73
2019-04-25T11:09:36.145Z,17.67
2019-04-25T11:10:36.130Z,17.70
2019-04-25T11:11:36.120Z,17.76
2019-04-25T11:12:36.109Z,17.79
2019-04-25T11:13:36.120Z,17.78
2019-04-25T11:14:36.090Z,17.71
2019-04-25T11:15:36.076Z,17.84
2019-04-25T11:16:36.104Z,17.74
2019-04-25T11:17:36.055Z,17.87
2019-04-25T11:18:36.065Z,17.78
2019-04-25T11:19:37.329Z,17.89
2019-04-25T11:20:36.024Z,17.94
2019-04-25T11:21:36.013Z,17.95
2019-04-25T11:22:36.048Z,18.00
2019-04-25T11:23:36.016Z,18.00
2019-04-25T11:24:35.983Z,18.19
2019-04-25T11:25:35.976Z,18.33
2019-04-25T11:26:35.960Z,18.49
2019-04-25T11:27:35.951Z,18.74
2019-04-25T11:28:35.939Z,18.64
2019-04-25T11:29:35.958Z,18.82
2019-04-25T11:30:35.918Z,18.80
2019-04-25T11:31:35.908Z,18.92
2019-04-25T11:32:35.897Z,18.98
2019-04-25T11:33:35.887Z,19.15
2019-04-25T11:34:35.901Z,19.14
2019-04-25T11:35:35.865Z,19.14
2019-04-25T11:36:35.855Z,19.42
2019-04-25T11:37:35.844Z,19.50
2019-04-25T11:38:35.836Z,19.57
2019-04-25T11:39:35.841Z,19.75
2019-04-25T11:40:35.811Z,19.73
2019-04-25T11:41:35.800Z,19.68
2019-04-25T11:42:35.792Z,19.68
2019-04-25T11:43:35.788Z,19.78
2019-04-25T11:44:35.810Z,19.88
2019-04-25T11:45:35.758Z,20.05
2019-04-25T11:46:35.748Z,20.08
2019-04-25T11:47:35.743Z,20.13
2019-04-25T11:48:35.726Z,20.24
2019-04-25T11:49:35.714Z,20.47
2019-04-25T11:50:37.063Z,20.56
2019-04-25T11:51:35.694Z,20.47
2019-04-25T11:52:35.682Z,20.31
2019-04-25T11:53:35.678Z,20.46
2019-04-25T11:54:35.672Z,20.47
2019-04-25T11:55:35.674Z,20.56
2019-04-25T11:56:35.642Z,20.43
2019-04-25T11:57:35.638Z,20.59
2019-04-25T11:58:35.620Z,20.58
2019-04-25T11:59:35.613Z,20.58
2019-04-25T12:00:35.622Z,20.65
2019-04-25T12:01:35.590Z,20.72
2019-04-25T12:02:35.576Z,20.66
2019-04-25T12:03:35.566Z,20.59
2019-04-25T12:04:35.562Z,20.58
2019-04-25T12:05:35.563Z,20.46
2019-04-25T12:06:35.534Z,20.33
2019-04-25T12:07:35.525Z,20.35
2019-04-25T12:08:35.523Z,20.28
2019-04-25T12:09:35.502Z,20.28
2019-04-25T12:10:35.513Z,20.38
2019-04-25T12:11:35.485Z,20.49
2019-04-25T12:12:37.194Z,20.56
2019-04-25T12:13:35.458Z,20.56
2019-04-25T12:14:35.446Z,20.58
2019-04-25T12:15:35.437Z,20.71
2019-04-25T12:16:35.451Z,20.72
2019-04-25T12:17:35.428Z,20.77
2019-04-25T12:18:35.515Z,20.71
2019-04-25T12:19:37.926Z,20.81
2019-04-25T12:20:35.386Z,20.79
2019-04-25T12:21:35.404Z,20.86
2019-04-25T12:22:35.370Z,20.83
2019-04-25T12:23:35.356Z,20.84
2019-04-25T12:24:35.345Z,20.87
2019-04-25T12:25:35.333Z,20.90
2019-04-25T12:26:35.357Z,20.93
2019-04-25T12:27:35.312Z,20.96
2019-04-25T12:28:35.306Z,21.08
2019-04-25T12:29:35.294Z,21.21
2019-04-25T12:30:40.077Z,21.17
2019-04-25T12:31:36.312Z,21.11
2019-04-25T12:32:35.399Z,21.09
2019-04-25T12:33:35.249Z,21.19
2019-04-25T12:34:35.243Z,21.34
2019-04-25T12:35:35.230Z,21.46
2019-04-25T12:36:35.218Z,21.51
2019-04-25T12:37:35.777Z,21.56
2019-04-25T12:38:35.483Z,21.56
2019-04-25T12:39:35.202Z,21.45
2019-04-25T12:40:35.176Z,21.53
2019-04-25T12:41:35.166Z,21.71
2019-04-25T12:42:35.176Z,21.60
2019-04-25T12:43:35.146Z,21.75
2019-04-25T12:44:35.142Z,21.75
2019-04-25T12:45:35.126Z,21.63
2019-04-25T12:46:35.115Z,21.72
2019-04-25T12:47:35.145Z,21.74
2019-04-25T12:48:35.126Z,21.75
2019-04-25T12:49:35.083Z,21.82
2019-04-25T12:50:35.071Z,21.66
2019-04-25T12:51:35.062Z,21.64
2019-04-25T12:52:35.050Z,21.69
2019-04-25T12:53:35.231Z,21.61
2019-04-25T12:54:35.031Z,21.59
2019-04-25T12:55:35.024Z,21.54
2019-04-25T12:56:35.010Z,21.50
2019-04-25T12:57:35.007Z,21.41
2019-04-25T12:58:35.021Z,21.44
2019-04-25T12:59:34.977Z,21.50
2019-04-25T13:00:47.261Z,21.51
2019-04-25T13:01:35.956Z,21.45